Darstellungsparameter: Aktuell verwendete Einstellungen:
Skalierung der Graphiken ... ?
xyx+y,   Skalierungsfaktor:      Skalierung: Modus: x, Faktor: 1
Darstellungszeitraum ... ?
Vom - - bis: - -   Zeitraum: 21.01.2011 - 22.01.2011
Min/Max/Avg-Anzeige ... ?
Zeige MMA aktuell
Zeige MMA Monat
Zeige MMA alles
Zeige --A aktuell
Zeige --A Monat
Zeige --A alles
Keine MMA-Anzeige
MMA:
Average (ber die Originaldaten)
MMA-Basis: 21.01.2011 - 22.01.2011
Quicknavigation für Darstellung... ?
Tage:      1T, 2T, 3T, 5T -1T -2T -3T -5T +1T +2T +3T +5T
Wochen: 1W, 2W, 3W -1W -2W -3W +1W +2W +3W
Monate: 1M, 3M, 6M -1M -3M -6M +1M +3M +6M
Jahre:    1J, 3J, 5J, 10J -1J -3J -5J -10J +1J +3J +5J +10J
Nutze für die Darstellung ... ?
Originaldaten oder Mittelwerte auf ...
Stundenbasis Tagesbasis Wochenbasis
Monatsbasis Jahresbasis      Datenbasis: Original-Daten
Darstellen als:
Statistik (Auto) Statistik J:M      Darstellung:
Zur Graphik,    zurück zur Übersicht aller Sensoren.
 
Tabellarische Datenbersicht: ?
 
Sensor: Nr:Datum:Temp:Abs-Feuchte:Windchill:Wind:
Aussen-T/F 1 21-01-2011 00:10:04 0.4 C 3.29 g/m*3 0.4 C 0 km/h
2 21-01-2011 00:22:04 0.4 C 3.14 g/m*3 0.4 C 0 km/h
3 21-01-2011 00:34:04 0.4 C 3.14 g/m*3 0.4 C 0 km/h
4 21-01-2011 00:46:04 0.3 C 3.07 g/m*3 0.3 C 0 km/h
5 21-01-2011 00:58:04 0.2 C 3.05 g/m*3 0.2 C 0 km/h
6 21-01-2011 01:10:04 0.1 C 3.17 g/m*3 0.1 C 0 km/h
7 21-01-2011 01:22:04 0.1 C 3.12 g/m*3 0.1 C 0 km/h
8 21-01-2011 01:34:04 0.2 C 3.05 g/m*3 0.2 C 0 km/h
9 21-01-2011 01:46:05 0.2 C 3.05 g/m*3 0.2 C 0 km/h
10 21-01-2011 01:58:05 0.3 C 3.02 g/m*3 0.3 C 0 km/h
11 21-01-2011 02:10:05 0.2 C 3.09 g/m*3 0.2 C 0 km/h
12 21-01-2011 02:22:05 0.2 C 3.19 g/m*3 0.2 C 0 km/h
13 21-01-2011 02:34:05 0.1 C 3.27 g/m*3 0.1 C 0 km/h
14 21-01-2011 02:46:05 0 C 3.05 g/m*3 0 C 0 km/h
15 21-01-2011 02:58:05 -0.3 C 2.94 g/m*3 -0.3 C 0 km/h
16 21-01-2011 03:10:05 -0.3 C 2.8 g/m*3 -0.3 C 0 km/h
17 21-01-2011 03:22:05 -0.4 C 2.83 g/m*3 -0.4 C 0 km/h
18 21-01-2011 03:34:05 -0.5 C 2.81 g/m*3 -0.5 C 0 km/h
19 21-01-2011 03:46:05 -0.4 C 2.78 g/m*3 -0.4 C 0 km/h
20 21-01-2011 03:58:05 -0.2 C 2.77 g/m*3 -0.2 C 0 km/h
21 21-01-2011 04:10:05 -0.2 C 2.72 g/m*3 -0.2 C 0 km/h
22 21-01-2011 04:22:05 -0.4 C 2.69 g/m*3 -0.4 C 0 km/h
23 21-01-2011 04:34:05 -0.5 C 2.62 g/m*3 -0.5 C 0 km/h
24 21-01-2011 04:46:05 -0.4 C 2.64 g/m*3 -0.4 C 0 km/h
25 21-01-2011 04:58:05 -0.4 C 2.69 g/m*3 -0.4 C 0 km/h
Sensor: Nr:Datum:Temp:Abs-Feuchte:Windchill:Wind:
Aussen-T/F 26 21-01-2011 05:10:05 -0.5 C 2.71 g/m*3 -0.5 C 0 km/h
27 21-01-2011 05:22:05 -0.5 C 2.76 g/m*3 -0.5 C 0 km/h
28 21-01-2011 05:34:05 -0.3 C 2.75 g/m*3 -0.3 C 0 km/h
29 21-01-2011 05:46:06 -0.4 C 2.78 g/m*3 -0.4 C 0 km/h
30 21-01-2011 05:58:06 -0.6 C 2.74 g/m*3 -0.6 C 0 km/h
31 21-01-2011 06:10:06 -0.7 C 2.77 g/m*3 -0.7 C 0 km/h
32 21-01-2011 06:22:06 -1 C 2.8 g/m*3 -1 C 0 km/h
33 21-01-2011 06:34:06 -0.9 C 2.87 g/m*3 -0.9 C 0 km/h
34 21-01-2011 06:46:06 -0.6 C 2.84 g/m*3 -0.6 C 0 km/h
35 21-01-2011 06:58:06 -0.5 C 2.76 g/m*3 -0.5 C 0 km/h
36 21-01-2011 07:10:06 -0.5 C 2.76 g/m*3 -0.5 C 0 km/h
37 21-01-2011 07:22:04 -0.6 C 2.7 g/m*3 -0.6 C 0 km/h
38 21-01-2011 07:34:04 -0.6 C 2.65 g/m*3 -0.6 C 0 km/h
39 21-01-2011 07:46:02 -0.7 C 2.63 g/m*3 -0.7 C 0 km/h
40 21-01-2011 07:58:02 -0.6 C 2.6 g/m*3 -0.6 C 0 km/h
41 21-01-2011 08:10:01 -0.6 C 2.65 g/m*3 -0.6 C 0 km/h
42 21-01-2011 08:22:02 -0.4 C 2.73 g/m*3 -0.4 C 0 km/h
43 21-01-2011 08:34:02 -0.5 C 2.67 g/m*3 -0.5 C 0 km/h
44 21-01-2011 08:46:02 -0.5 C 2.71 g/m*3 -0.5 C 0 km/h
45 21-01-2011 08:58:02 -0.5 C 2.67 g/m*3 -0.5 C 0 km/h
46 21-01-2011 09:10:02 -0.4 C 2.69 g/m*3 -0.4 C 0 km/h
47 21-01-2011 09:22:02 -0.2 C 2.77 g/m*3 -0.2 C 0 km/h
48 21-01-2011 09:34:02 -0.1 C 2.79 g/m*3 -0.1 C 0 km/h
49 21-01-2011 09:46:01 0 C 2.81 g/m*3 0 C 0 km/h
50 21-01-2011 09:58:01 0 C 2.71 g/m*3 0 C 0 km/h
Sensor: Nr:Datum:Temp:Abs-Feuchte:Windchill:Wind:
Aussen-T/F 51 21-01-2011 10:10:02 0.1 C 2.73 g/m*3 0.1 C 0 km/h
52 21-01-2011 10:22:02 0.3 C 2.77 g/m*3 0.3 C 0 km/h
53 21-01-2011 10:34:02 0.1 C 2.73 g/m*3 0.1 C 0 km/h
54 21-01-2011 10:46:02 0.1 C 2.73 g/m*3 0.1 C 0 km/h
55 21-01-2011 10:58:02 0.1 C 2.73 g/m*3 0.1 C 0 km/h
56 21-01-2011 11:10:01 0.2 C 2.8 g/m*3 0.2 C 0 km/h
57 21-01-2011 11:22:02 -0.1 C 2.79 g/m*3 -0.1 C 0 km/h
58 21-01-2011 11:34:01 -0.2 C 2.77 g/m*3 -0.2 C 0 km/h
59 21-01-2011 11:46:02 0.1 C 2.93 g/m*3 0.1 C 0 km/h
60 21-01-2011 11:58:03 0.1 C 2.83 g/m*3 0.1 C 0 km/h
61 21-01-2011 12:10:02 0.4 C 2.94 g/m*3 0.4 C 0 km/h
62 21-01-2011 12:22:02 0.1 C 2.83 g/m*3 0.1 C 0 km/h
63 21-01-2011 12:34:02 -0.2 C 2.82 g/m*3 -0.2 C 0 km/h
64 21-01-2011 12:46:01 0.5 C 2.96 g/m*3 0.5 C 0 km/h
65 21-01-2011 12:58:01 0.8 C 2.97 g/m*3 0.8 C 0 km/h
66 21-01-2011 13:10:02 0.8 C 3.02 g/m*3 0.8 C 0 km/h
67 21-01-2011 13:22:01 1.4 C 2.93 g/m*3 1.4 C 0 km/h
68 21-01-2011 13:34:02 1.5 C 2.95 g/m*3 1.5 C 0 km/h
69 21-01-2011 13:46:01 1 C 2.85 g/m*3 1 C 0 km/h
70 21-01-2011 13:58:01 0.6 C 2.98 g/m*3 0.6 C 0 km/h
71 21-01-2011 14:10:02 0.7 C 3 g/m*3 0.7 C 0 km/h
72 21-01-2011 14:22:01 0.6 C 2.98 g/m*3 0.6 C 0 km/h
73 21-01-2011 14:34:02 1.6 C 3.03 g/m*3 1.6 C 0 km/h
74 21-01-2011 14:46:01 1.7 C 2.99 g/m*3 1.7 C 0 km/h
75 21-01-2011 14:58:01 1.8 C 3.01 g/m*3 1.8 C 0 km/h
Sensor: Nr:Datum:Temp:Abs-Feuchte:Windchill:Wind:
Aussen-T/F 76 21-01-2011 15:10:02 1.5 C 2.95 g/m*3 1.5 C 0 km/h
77 21-01-2011 15:22:02 1.3 C 3.02 g/m*3 1.3 C 0 km/h
78 21-01-2011 15:34:01 1 C 3.01 g/m*3 1 C 0 km/h
79 21-01-2011 15:46:02 0.6 C 3.03 g/m*3 0.6 C 0 km/h
80 21-01-2011 15:58:02 0.7 C 3.05 g/m*3 0.7 C 0 km/h
81 21-01-2011 16:10:01 0.8 C 3.12 g/m*3 0.8 C 0 km/h
82 21-01-2011 16:22:02 0.5 C 3.11 g/m*3 0.5 C 0 km/h
83 21-01-2011 16:34:01 0 C 3.1 g/m*3 0 C 0 km/h
84 21-01-2011 16:46:02 -0.2 C 3.11 g/m*3 -0.2 C 0 km/h
85 21-01-2011 16:58:02 -0.2 C 3.2 g/m*3 -0.2 C 0 km/h
86 21-01-2011 17:10:02 -0.4 C 3.2 g/m*3 -0.4 C 0 km/h
87 21-01-2011 17:22:02 -0.3 C 3.27 g/m*3 -0.3 C 0 km/h
88 21-01-2011 17:34:02 -0.3 C 3.27 g/m*3 -0.3 C 0 km/h
89 21-01-2011 17:46:02 -0.1 C 3.27 g/m*3 -0.1 C 0 km/h
90 21-01-2011 17:58:02 0 C 3.25 g/m*3 0 C 0 km/h
91 21-01-2011 18:10:02 0 C 3.29 g/m*3 0 C 0 km/h
92 21-01-2011 18:22:02 -0.1 C 3.27 g/m*3 -0.1 C 0 km/h
93 21-01-2011 18:34:02 -0.2 C 3.25 g/m*3 -0.2 C 0 km/h
94 21-01-2011 18:46:02 -0.2 C 3.25 g/m*3 -0.2 C 0 km/h
95 21-01-2011 18:58:02 -0.2 C 3.25 g/m*3 -0.2 C 0 km/h
96 21-01-2011 19:10:02 -0.2 C 3.25 g/m*3 -0.2 C 0 km/h
97 21-01-2011 19:22:02 -0.4 C 3.25 g/m*3 -0.4 C 0 km/h
98 21-01-2011 19:34:03 -0.4 C 3.25 g/m*3 -0.4 C 0 km/h
99 21-01-2011 19:46:01 -0.5 C 3.23 g/m*3 -0.5 C 0 km/h
100 21-01-2011 19:58:01 -0.5 C 3.28 g/m*3 -0.5 C 0 km/h
Sensor: Nr:Datum:Temp:Abs-Feuchte:Windchill:Wind:
Aussen-T/F 101 21-01-2011 20:10:02 -0.5 C 3.28 g/m*3 -0.5 C 0 km/h
102 21-01-2011 20:22:01 -0.4 C 3.39 g/m*3 -0.4 C 0 km/h
103 21-01-2011 20:34:01 -0.4 C 3.44 g/m*3 -0.4 C 0 km/h
104 21-01-2011 20:46:01 -0.4 C 3.44 g/m*3 -0.4 C 0 km/h
105 21-01-2011 20:58:01 -0.4 C 3.44 g/m*3 -0.4 C 0 km/h
106 21-01-2011 21:10:02 -0.7 C 3.55 g/m*3 -0.7 C 0 km/h
107 21-01-2011 21:22:01 -0.7 C 3.6 g/m*3 -0.7 C 0 km/h
108 21-01-2011 21:34:02 -0.8 C 3.62 g/m*3 -0.8 C 0 km/h
109 21-01-2011 21:46:01 -0.9 C 3.6 g/m*3 -0.9 C 0 km/h
110 21-01-2011 21:58:01 -0.8 C 3.67 g/m*3 -0.8 C 0 km/h
111 21-01-2011 22:10:02 -0.7 C 3.69 g/m*3 -0.7 C 0 km/h
112 21-01-2011 22:22:02 -0.6 C 3.72 g/m*3 -0.6 C 0 km/h
113 21-01-2011 22:34:01 -0.6 C 3.72 g/m*3 -0.6 C 0 km/h
114 21-01-2011 22:46:02 -0.5 C 3.7 g/m*3 -0.5 C 0 km/h
115 21-01-2011 22:58:02 -0.5 C 3.7 g/m*3 -0.5 C 0 km/h
116 21-01-2011 23:10:01 -0.5 C 3.74 g/m*3 -0.5 C 0 km/h
117 21-01-2011 23:22:02 -0.5 C 3.79 g/m*3 -0.5 C 0 km/h
118 21-01-2011 23:34:01 -0.5 C 3.79 g/m*3 -0.5 C 0 km/h
119 21-01-2011 23:47:04 -0.5 C 3.79 g/m*3 -0.5 C 0 km/h
120 21-01-2011 23:59:04 -0.4 C 3.86 g/m*3 -0.4 C 0 km/h
121 22-01-2011 00:11:04 -0.4 C 3.86 g/m*3 -0.4 C 0 km/h
122 22-01-2011 00:23:04 -0.4 C 3.86 g/m*3 -0.4 C 0 km/h
123 22-01-2011 00:35:04 -0.4 C 3.86 g/m*3 -0.4 C 0 km/h
124 22-01-2011 00:47:04 -0.4 C 3.86 g/m*3 -0.4 C 0 km/h
125 22-01-2011 00:59:04 -0.4 C 3.86 g/m*3 -0.4 C 0 km/h
Sensor: Nr:Datum:Temp:Abs-Feuchte:Windchill:Wind:
Aussen-T/F 126 22-01-2011 01:11:04 -0.4 C 3.86 g/m*3 -0.4 C 0 km/h
127 22-01-2011 01:23:05 -0.4 C 3.86 g/m*3 -0.4 C 0 km/h
128 22-01-2011 01:35:05 -0.4 C 3.86 g/m*3 -0.4 C 0 km/h
129 22-01-2011 01:47:05 -0.4 C 3.86 g/m*3 -0.4 C 0 km/h
130 22-01-2011 01:59:05 -0.4 C 3.86 g/m*3 -0.4 C 0 km/h
131 22-01-2011 02:11:05 -0.4 C 3.86 g/m*3 -0.4 C 0 km/h
132 22-01-2011 02:23:05 -0.4 C 3.86 g/m*3 -0.4 C 0 km/h
133 22-01-2011 02:35:05 -0.4 C 3.86 g/m*3 -0.4 C 0 km/h
134 22-01-2011 02:47:05 -0.4 C 3.86 g/m*3 -0.4 C 0 km/h
135 22-01-2011 02:59:05 -0.4 C 3.86 g/m*3 -0.4 C 0 km/h
136 22-01-2011 03:11:05 -0.4 C 3.86 g/m*3 -0.4 C 0 km/h
137 22-01-2011 03:23:05 -0.4 C 3.86 g/m*3 -0.4 C 0 km/h
138 22-01-2011 03:35:05 -0.4 C 3.86 g/m*3 -0.4 C 0 km/h
139 22-01-2011 03:47:05 -0.4 C 3.86 g/m*3 -0.4 C 0 km/h
140 22-01-2011 03:59:05 -0.4 C 3.86 g/m*3 -0.4 C 0 km/h
141 22-01-2011 04:11:05 -0.4 C 3.86 g/m*3 -0.4 C 0 km/h
142 22-01-2011 04:23:05 -0.4 C 3.86 g/m*3 -0.4 C 0 km/h
143 22-01-2011 04:35:05 -0.4 C 3.86 g/m*3 -0.4 C 0 km/h
144 22-01-2011 04:47:05 -0.4 C 3.86 g/m*3 -0.4 C 0 km/h
145 22-01-2011 04:59:05 -0.4 C 3.86 g/m*3 -0.4 C 0 km/h
146 22-01-2011 05:11:05 -0.4 C 3.86 g/m*3 -0.4 C 0 km/h
147 22-01-2011 05:23:05 -0.4 C 3.86 g/m*3 -0.4 C 0 km/h
148 22-01-2011 05:35:06 -0.4 C 3.86 g/m*3 -0.4 C 0 km/h
149 22-01-2011 05:47:06 -0.4 C 3.86 g/m*3 -0.4 C 0 km/h
150 22-01-2011 05:59:06 -0.4 C 3.86 g/m*3 -0.4 C 0 km/h
Sensor: Nr:Datum:Temp:Abs-Feuchte:Windchill:Wind:
Aussen-T/F 151 22-01-2011 06:11:06 -0.4 C 3.86 g/m*3 -0.4 C 0 km/h
152 22-01-2011 06:23:06 -0.4 C 3.86 g/m*3 -0.4 C 0 km/h
153 22-01-2011 06:35:06 -0.4 C 3.86 g/m*3 -0.4 C 0 km/h
154 22-01-2011 06:47:06 -0.4 C 3.86 g/m*3 -0.4 C 0 km/h
155 22-01-2011 06:59:06 -0.4 C 3.86 g/m*3 -0.4 C 0 km/h
156 22-01-2011 07:11:06 -0.4 C 3.86 g/m*3 -0.4 C 0 km/h
157 22-01-2011 07:23:06 -0.4 C 3.86 g/m*3 -0.4 C 0 km/h
158 22-01-2011 07:35:06 -0.4 C 3.86 g/m*3 -0.4 C 0 km/h
159 22-01-2011 07:47:06 -0.4 C 3.86 g/m*3 -0.4 C 0 km/h
160 22-01-2011 07:59:06 -0.4 C 3.86 g/m*3 -0.4 C 0 km/h
161 22-01-2011 08:11:06 -0.4 C 3.86 g/m*3 -0.4 C 0 km/h
162 22-01-2011 08:23:06 -0.4 C 3.86 g/m*3 -0.4 C 0 km/h
163 22-01-2011 08:35:06 -0.4 C 3.86 g/m*3 -0.4 C 0 km/h
164 22-01-2011 08:47:06 -0.4 C 3.86 g/m*3 -0.4 C 0 km/h
165 22-01-2011 08:59:06 0 C 3.97 g/m*3 0 C 0 km/h
166 22-01-2011 09:11:06 0 C 3.97 g/m*3 0 C 0 km/h
167 22-01-2011 09:23:06 0 C 3.97 g/m*3 0 C 0 km/h
168 22-01-2011 09:35:07 0 C 3.97 g/m*3 0 C 0 km/h
169 22-01-2011 09:47:07 0 C 3.97 g/m*3 0 C 0 km/h
170 22-01-2011 09:59:07 0 C 3.97 g/m*3 0 C 0 km/h
171 22-01-2011 10:11:07 0 C 3.97 g/m*3 0 C 0 km/h
172 22-01-2011 10:23:03 0.9 C 3.92 g/m*3 0.9 C 0 km/h
173 22-01-2011 10:35:04 1.2 C 3.84 g/m*3 1.2 C 0 km/h
174 22-01-2011 10:47:02 1.1 C 3.76 g/m*3 1.1 C 0 km/h
175 22-01-2011 10:59:02 1.4 C 3.79 g/m*3 1.4 C 0 km/h
Sensor: Nr:Datum:Temp:Abs-Feuchte:Windchill:Wind:
Aussen-T/F 176 22-01-2011 11:11:02 1.4 C 3.79 g/m*3 1.4 C 0 km/h
177 22-01-2011 11:23:02 1.3 C 3.71 g/m*3 1.3 C 0 km/h
178 22-01-2011 11:35:02 1.5 C 3.76 g/m*3 1.5 C 0 km/h
179 22-01-2011 11:47:02 1.4 C 3.68 g/m*3 1.4 C 0 km/h
180 22-01-2011 11:59:03 1.4 C 3.68 g/m*3 1.4 C 0 km/h
181 22-01-2011 12:11:01 1.4 C 3.68 g/m*3 1.4 C 0 km/h
182 22-01-2011 12:23:01 1.7 C 3.7 g/m*3 1.7 C 0 km/h
183 22-01-2011 12:35:02 1.7 C 3.7 g/m*3 1.7 C 0 km/h
184 22-01-2011 12:47:02 1.8 C 3.67 g/m*3 1.8 C 0 km/h
185 22-01-2011 12:59:02 2 C 3.67 g/m*3 2 C 0 km/h
186 22-01-2011 13:11:02 1.9 C 3.59 g/m*3 1.9 C 0 km/h
187 22-01-2011 13:23:02 1.9 C 3.59 g/m*3 1.9 C 0 km/h
188 22-01-2011 13:35:02 1.4 C 3.73 g/m*3 1.4 C 0 km/h
189 22-01-2011 13:47:02 1.7 C 3.87 g/m*3 1.7 C 0 km/h
190 22-01-2011 13:59:02 1.7 C 3.87 g/m*3 1.7 C 0 km/h
191 22-01-2011 14:11:03 1.8 C 3.95 g/m*3 1.8 C 0 km/h
192 22-01-2011 14:23:02 1.8 C 4 g/m*3 1.8 C 0 km/h
193 22-01-2011 14:35:02 2 C 4.06 g/m*3 2 C 0 km/h
194 22-01-2011 14:47:01 2 C 4 g/m*3 2 C 0 km/h
195 22-01-2011 14:59:01 1.6 C 3.89 g/m*3 1.6 C 0 km/h
196 22-01-2011 15:11:02 1.4 C 3.84 g/m*3 1.4 C 0 km/h
197 22-01-2011 15:23:01 1.6 C 3.95 g/m*3 1.6 C 0 km/h
198 22-01-2011 15:35:02 1.6 C 3.95 g/m*3 1.6 C 0 km/h
199 22-01-2011 15:47:01 1.6 C 3.95 g/m*3 1.6 C 0 km/h
200 22-01-2011 15:59:01 1.6 C 3.89 g/m*3 1.6 C 0 km/h
Sensor: Nr:Datum:Temp:Abs-Feuchte:Windchill:Wind:
Aussen-T/F 201 22-01-2011 16:11:02 1.5 C 3.87 g/m*3 1.5 C 0 km/h
202 22-01-2011 16:23:01 1.4 C 3.89 g/m*3 1.4 C 0 km/h
203 22-01-2011 16:35:02 1.3 C 3.87 g/m*3 1.3 C 0 km/h
204 22-01-2011 16:47:02 1.3 C 3.87 g/m*3 1.3 C 0 km/h
205 22-01-2011 16:59:02 0.9 C 3.81 g/m*3 0.9 C 0 km/h
206 22-01-2011 17:11:02 0.8 C 3.84 g/m*3 0.8 C 0 km/h
207 22-01-2011 17:23:02 0.7 C 3.92 g/m*3 0.7 C 0 km/h
208 22-01-2011 17:35:02 0.7 C 3.92 g/m*3 0.7 C 0 km/h
209 22-01-2011 17:47:01 0.7 C 3.92 g/m*3 0.7 C 0 km/h
210 22-01-2011 17:59:01 0.7 C 3.92 g/m*3 0.7 C 0 km/h
211 22-01-2011 18:11:01 0.7 C 3.92 g/m*3 0.7 C 0 km/h
212 22-01-2011 18:23:01 0.7 C 3.92 g/m*3 0.7 C 0 km/h
213 22-01-2011 18:35:02 0.7 C 3.92 g/m*3 0.7 C 0 km/h
214 22-01-2011 18:47:02 0.7 C 3.92 g/m*3 0.7 C 0 km/h
215 22-01-2011 18:59:02 0 C 3.97 g/m*3 0 C 0 km/h
216 22-01-2011 19:11:02 0.2 C 4.03 g/m*3 0.2 C 0 km/h
217 22-01-2011 19:23:02 0.3 C 4.06 g/m*3 0.3 C 0 km/h
218 22-01-2011 19:35:02 0.4 C 4.08 g/m*3 0.4 C 0 km/h
219 22-01-2011 19:47:02 0.4 C 4.03 g/m*3 0.4 C 0 km/h
220 22-01-2011 19:59:03 0.4 C 4.03 g/m*3 0.4 C 0 km/h
221 22-01-2011 20:11:02 0.4 C 3.98 g/m*3 0.4 C 0 km/h
222 22-01-2011 20:23:02 0.4 C 3.98 g/m*3 0.4 C 0 km/h
223 22-01-2011 20:35:02 0.4 C 4.03 g/m*3 0.4 C 0 km/h
224 22-01-2011 20:47:02 0.4 C 4.03 g/m*3 0.4 C 0 km/h
225 22-01-2011 20:59:02 0.3 C 4.01 g/m*3 0.3 C 0 km/h
Sensor: Nr:Datum:Temp:Abs-Feuchte:Windchill:Wind:
Aussen-T/F 226 22-01-2011 21:11:02 0.4 C 4.03 g/m*3 0.4 C 0 km/h
227 22-01-2011 21:23:01 0.4 C 4.03 g/m*3 0.4 C 0 km/h
228 22-01-2011 21:35:02 0.3 C 4.01 g/m*3 0.3 C 0 km/h
229 22-01-2011 21:47:02 0.3 C 4.06 g/m*3 0.3 C 0 km/h
230 22-01-2011 21:59:02 0.2 C 4.03 g/m*3 0.2 C 0 km/h
231 22-01-2011 22:11:02 0.3 C 4.06 g/m*3 0.3 C 0 km/h
232 22-01-2011 22:24:03 0.3 C 4.06 g/m*3 0.3 C 0 km/h
233 22-01-2011 22:36:03 0.2 C 4.03 g/m*3 0.2 C 0 km/h
234 22-01-2011 22:48:03 0.2 C 4.03 g/m*3 0.2 C 0 km/h
235 22-01-2011 23:00:03 0 C 3.97 g/m*3 0 C 0 km/h
236 22-01-2011 23:12:03 0 C 3.97 g/m*3 0 C 0 km/h
237 22-01-2011 23:24:03 0 C 3.97 g/m*3 0 C 0 km/h
238 22-01-2011 23:36:03 0 C 3.97 g/m*3 0 C 0 km/h
239 22-01-2011 23:48:03 0 C 3.97 g/m*3 0 C 0 km/h

Legende:
   Min
   Max


Maximal/Minimal-Werte vom 21.01.2011 - 22.01.2011

Sensor Min Max Avg
Temp
(Aussen-T/F)
-1 °C
21-01-2011  06:22:06
2 °C
22-01-2011  12:59:02
0.16 °C
Abs-Feuchte
(Aussen-T/F)
2.6 g/m*3
21-01-2011  07:58:02
4.08 g/m*3
22-01-2011  19:35:02
3.46 g/m*3
Windchill
(Aussen-T/F)
-1 C
21-01-2011  06:22:06
2 C
22-01-2011  12:59:02
0.16 C

Die Daten stammen von einer Davis Vantage Pro 2 Wetter-Station und werden unter Linux mit der Software wview2wettercgi und aufbereitet. Alle Angaben erfolgen ohne Gewähr für ihre Vollständigkeit oder Richtigkeit.
Kontakt: Rainer Krienke krienke@uni-koblenz.de . Meine Webseiten an der Uni Koblenz oder privat.
Version: $Revision: 0.78 $